Terminal Aerodrome Forecast
Issued by NWS

Home | Current Version | Previous Version | Text Only | Print | Product List | Glossary On
Versions: 1 2 3 4 5 6 7 8 9 10 11 12 13 14
000
FTUS46 KMFR 281922 AAA
TAFRBG
TAF AMD
KRBG 281922Z 2819/2918 VRB03KT P6SM SCT016
     FM282200 36007KT P6SM SCT020
     FM291000 36005KT P6SM BKN020
     FM291200 36007KT P6SM OVC015=

USA.gov is the U.S. government's official web portal to all federal, state and local government web resources and services.